Terminal Aerodrome Forecast
Issued by NWS

Home | Current Version | Previous Version | Text Only | Print | Product List | Glossary On
Versions: 1 2 3 4 5 6 7 8 9 10 11 12 13 14 15 16 17 18 19 20 21 22 23 24
587
FTUS41 KCAR 201016 AAA
TAFFVE
TAF AMD
KFVE 201016Z 2010/2106 16007KT 1/4SM -DZ FG VCSH OVC002
     FM201130 22005KT P6SM OVC008
     FM201400 30008KT P6SM VCSH BKN035
     FM202100 30015G23KT P6SM FEW035 SCT150=

USA.gov is the U.S. government's official web portal to all federal, state and local government web resources and services.